sensor_id;sensor_type;location;lat;lon;timestamp;pressure;altitude;pressure_sealevel;temperature;humidity
38880;BME280;25887;30.194;-97.880;2024-01-11T00:01:09;97708.22;;;19.34;31.00
38880;BME280;25887;30.194;-97.880;2024-01-11T00:03:38;97706.88;;;19.25;31.28
38880;BME280;25887;30.194;-97.880;2024-01-11T00:06:05;97709.00;;;19.17;31.16
38880;BME280;25887;30.194;-97.880;2024-01-11T00:08:31;97725.03;;;19.08;31.16
38880;BME280;25887;30.194;-97.880;2024-01-11T00:10:57;97730.63;;;18.99;31.61
38880;BME280;25887;30.194;-97.880;2024-01-11T00:13:24;97717.09;;;18.90;31.36
38880;BME280;25887;30.194;-97.880;2024-01-11T00:15:50;97718.25;;;18.85;31.79
38880;BME280;25887;30.194;-97.880;2024-01-11T00:18:16;97712.56;;;18.75;31.74
38880;BME280;25887;30.194;-97.880;2024-01-11T00:20:43;97719.84;;;18.67;31.68
38880;BME280;25887;30.194;-97.880;2024-01-11T00:23:09;97721.91;;;18.59;31.80
38880;BME280;25887;30.194;-97.880;2024-01-11T00:25:35;97724.84;;;18.51;31.92
38880;BME280;25887;30.194;-97.880;2024-01-11T00:28:02;97724.38;;;18.42;31.87
38880;BME280;25887;30.194;-97.880;2024-01-11T00:30:29;97741.22;;;18.33;32.05
38880;BME280;25887;30.194;-97.880;2024-01-11T00:32:55;97747.66;;;18.24;32.17
38880;BME280;25887;30.194;-97.880;2024-01-11T00:35:21;97748.81;;;18.17;32.20
38880;BME280;25887;30.194;-97.880;2024-01-11T00:37:48;97745.69;;;18.09;32.48
38880;BME280;25887;30.194;-97.880;2024-01-11T00:40:14;97738.13;;;18.03;32.26
38880;BME280;25887;30.194;-97.880;2024-01-11T00:42:41;97741.03;;;17.95;32.42
38880;BME280;25887;30.194;-97.880;2024-01-11T00:45:07;97762.03;;;17.89;32.75
38880;BME280;25887;30.194;-97.880;2024-01-11T00:47:33;97751.94;;;17.81;32.47
38880;BME280;25887;30.194;-97.880;2024-01-11T00:50:00;97758.31;;;17.74;32.38
38880;BME280;25887;30.194;-97.880;2024-01-11T00:52:26;97769.75;;;17.69;32.98
38880;BME280;25887;30.194;-97.880;2024-01-11T00:54:52;97771.66;;;17.64;32.92
38880;BME280;25887;30.194;-97.880;2024-01-11T00:57:19;97778.78;;;17.59;32.99
38880;BME280;25887;30.194;-97.880;2024-01-11T00:59:45;97792.94;;;17.51;32.97
38880;BME280;25887;30.194;-97.880;2024-01-11T01:02:11;97796.59;;;17.46;33.21
38880;BME280;25887;30.194;-97.880;2024-01-11T01:04:38;97798.63;;;17.38;33.35
38880;BME280;25887;30.194;-97.880;2024-01-11T01:07:04;97800.72;;;17.28;33.61
38880;BME280;25887;30.194;-97.880;2024-01-11T01:09:33;97810.53;;;17.20;33.43
38880;BME280;25887;30.194;-97.880;2024-01-11T01:11:59;97803.03;;;17.11;33.49
38880;BME280;25887;30.194;-97.880;2024-01-11T01:14:25;97801.63;;;17.02;33.59
38880;BME280;25887;30.194;-97.880;2024-01-11T01:16:51;97813.13;;;16.95;33.69
38880;BME280;25887;30.194;-97.880;2024-01-11T01:19:17;97815.94;;;16.89;33.41
38880;BME280;25887;30.194;-97.880;2024-01-11T01:21:43;97818.81;;;16.80;33.81
38880;BME280;25887;30.194;-97.880;2024-01-11T01:24:10;97830.38;;;16.71;33.84
38880;BME280;25887;30.194;-97.880;2024-01-11T01:26:36;97829.84;;;16.60;33.87
38880;BME280;25887;30.194;-97.880;2024-01-11T01:29:02;97828.50;;;16.48;33.88
38880;BME280;25887;30.194;-97.880;2024-01-11T01:31:29;97826.25;;;16.37;34.07
38880;BME280;25887;30.194;-97.880;2024-01-11T01:33:55;97830.91;;;16.28;33.92
38880;BME280;25887;30.194;-97.880;2024-01-11T01:36:21;97830.31;;;16.18;34.16
38880;BME280;25887;30.194;-97.880;2024-01-11T01:38:48;97833.13;;;16.12;34.41
38880;BME280;25887;30.194;-97.880;2024-01-11T01:41:14;97821.31;;;16.03;33.91
38880;BME280;25887;30.194;-97.880;2024-01-11T01:43:40;97817.19;;;15.96;34.39
38880;BME280;25887;30.194;-97.880;2024-01-11T01:46:07;97818.22;;;15.91;34.37
38880;BME280;25887;30.194;-97.880;2024-01-11T01:48:33;97815.75;;;15.87;34.84
38880;BME280;25887;30.194;-97.880;2024-01-11T01:50:59;97815.88;;;15.83;34.59
38880;BME280;25887;30.194;-97.880;2024-01-11T01:53:27;97816.84;;;15.79;34.69
38880;BME280;25887;30.194;-97.880;2024-01-11T01:55:54;97823.81;;;15.77;34.74
38880;BME280;25887;30.194;-97.880;2024-01-11T01:58:21;97830.00;;;15.73;34.64
38880;BME280;25887;30.194;-97.880;2024-01-11T02:00:49;97833.59;;;15.67;35.06
38880;BME280;25887;30.194;-97.880;2024-01-11T02:03:16;97834.63;;;15.60;34.98
38880;BME280;25887;30.194;-97.880;2024-01-11T02:05:43;97836.59;;;15.52;35.04
38880;BME280;25887;30.194;-97.880;2024-01-11T02:08:15;97841.16;;;15.44;35.12
38880;BME280;25887;30.194;-97.880;2024-01-11T02:10:42;97839.66;;;15.35;35.21
38880;BME280;25887;30.194;-97.880;2024-01-11T02:13:09;97844.22;;;15.27;35.16
38880;BME280;25887;30.194;-97.880;2024-01-11T02:15:35;97834.13;;;15.18;35.16
38880;BME280;25887;30.194;-97.880;2024-01-11T02:18:02;97846.38;;;15.10;35.30
38880;BME280;25887;30.194;-97.880;2024-01-11T02:20:28;97845.81;;;14.98;35.40
38880;BME280;25887;30.194;-97.880;2024-01-11T02:23:01;97855.63;;;14.87;35.37
38880;BME280;25887;30.194;-97.880;2024-01-11T02:25:27;97843.78;;;14.77;35.35
38880;BME280;25887;30.194;-97.880;2024-01-11T02:27:55;97850.09;;;14.67;35.44
38880;BME280;25887;30.194;-97.880;2024-01-11T02:30:21;97851.22;;;14.57;35.57
38880;BME280;25887;30.194;-97.880;2024-01-11T02:32:49;97855.72;;;14.48;35.78
38880;BME280;25887;30.194;-97.880;2024-01-11T02:35:16;97848.97;;;14.41;35.83
38880;BME280;25887;30.194;-97.880;2024-01-11T02:37:45;97849.09;;;14.35;36.05
38880;BME280;25887;30.194;-97.880;2024-01-11T02:40:13;97848.44;;;14.27;35.94
38880;BME280;25887;30.194;-97.880;2024-01-11T02:42:40;97858.91;;;14.21;35.98
38880;BME280;25887;30.194;-97.880;2024-01-11T02:45:07;97853.94;;;14.12;36.18
38880;BME280;25887;30.194;-97.880;2024-01-11T02:47:33;97852.38;;;14.05;35.98
38880;BME280;25887;30.194;-97.880;2024-01-11T02:49:59;97863.69;;;13.99;35.96
38880;BME280;25887;30.194;-97.880;2024-01-11T02:52:26;97857.88;;;13.89;36.17
38880;BME280;25887;30.194;-97.880;2024-01-11T02:54:52;97852.84;;;13.83;36.06
38880;BME280;25887;30.194;-97.880;2024-01-11T02:57:18;97840.09;;;13.76;35.95
38880;BME280;25887;30.194;-97.880;2024-01-11T02:59:46;97835.09;;;13.70;36.52
38880;BME280;25887;30.194;-97.880;2024-01-11T03:02:12;97845.47;;;13.66;36.24
38880;BME280;25887;30.194;-97.880;2024-01-11T03:04:39;97845.50;;;13.65;36.39
38880;BME280;25887;30.194;-97.880;2024-01-11T03:07:05;97848.16;;;13.62;36.58
38880;BME280;25887;30.194;-97.880;2024-01-11T03:09:31;97849.09;;;13.58;36.51
38880;BME280;25887;30.194;-97.880;2024-01-11T03:11:57;97844.03;;;13.52;37.14
38880;BME280;25887;30.194;-97.880;2024-01-11T03:14:23;97844.94;;;13.51;36.94
38880;BME280;25887;30.194;-97.880;2024-01-11T03:16:50;97846.75;;;13.47;36.91
38880;BME280;25887;30.194;-97.880;2024-01-11T03:19:16;97840.78;;;13.44;36.97
38880;BME280;25887;30.194;-97.880;2024-01-11T03:21:45;97839.97;;;13.42;36.90
38880;BME280;25887;30.194;-97.880;2024-01-11T03:24:12;97843.41;;;13.41;37.08
38880;BME280;25887;30.194;-97.880;2024-01-11T03:26:42;97846.88;;;13.38;37.32
38880;BME280;25887;30.194;-97.880;2024-01-11T03:29:08;97846.19;;;13.31;37.09
38880;BME280;25887;30.194;-97.880;2024-01-11T03:31:34;97845.41;;;13.26;37.12
38880;BME280;25887;30.194;-97.880;2024-01-11T03:34:01;97842.91;;;13.22;37.39
38880;BME280;25887;30.194;-97.880;2024-01-11T03:36:28;97844.72;;;13.17;36.89
38880;BME280;25887;30.194;-97.880;2024-01-11T03:38:55;97843.91;;;13.13;37.48
38880;BME280;25887;30.194;-97.880;2024-01-11T03:41:21;97850.91;;;13.08;37.39
38880;BME280;25887;30.194;-97.880;2024-01-11T03:43:50;97857.94;;;13.00;37.37
38880;BME280;25887;30.194;-97.880;2024-01-11T03:46:16;97859.72;;;12.95;37.41
38880;BME280;25887;30.194;-97.880;2024-01-11T03:48:42;97866.66;;;12.93;37.28
38880;BME280;25887;30.194;-97.880;2024-01-11T03:51:08;97864.91;;;12.92;37.42
38880;BME280;25887;30.194;-97.880;2024-01-11T03:53:36;97871.78;;;12.94;37.53
38880;BME280;25887;30.194;-97.880;2024-01-11T03:56:03;97871.75;;;12.96;37.97
38880;BME280;25887;30.194;-97.880;2024-01-11T03:58:29;97872.59;;;12.96;37.74
38880;BME280;25887;30.194;-97.880;2024-01-11T04:00:57;97870.03;;;12.95;37.77
38880;BME280;25887;30.194;-97.880;2024-01-11T04:03:23;97876.97;;;12.93;38.17
38880;BME280;25887;30.194;-97.880;2024-01-11T04:05:49;97870.06;;;12.93;37.90
38880;BME280;25887;30.194;-97.880;2024-01-11T04:08:16;97866.66;;;12.93;38.16
38880;BME280;25887;30.194;-97.880;2024-01-11T04:10:42;97866.63;;;12.94;37.97
38880;BME280;25887;30.194;-97.880;2024-01-11T04:13:08;97866.59;;;12.96;38.09
38880;BME280;25887;30.194;-97.880;2024-01-11T04:15:35;97869.09;;;12.99;38.09
38880;BME280;25887;30.194;-97.880;2024-01-11T04:18:01;97863.91;;;13.02;37.96
38880;BME280;25887;30.194;-97.880;2024-01-11T04:20:27;97865.53;;;13.07;37.98
38880;BME280;25887;30.194;-97.880;2024-01-11T04:22:54;97859.44;;;13.10;38.07
38880;BME280;25887;30.194;-97.880;2024-01-11T04:25:20;97864.53;;;13.13;38.17
38880;BME280;25887;30.194;-97.880;2024-01-11T04:27:47;97859.38;;;13.13;38.18
38880;BME280;25887;30.194;-97.880;2024-01-11T04:30:13;97868.81;;;13.16;38.29
38880;BME280;25887;30.194;-97.880;2024-01-11T04:32:39;97869.66;;;13.16;38.54
38880;BME280;25887;30.194;-97.880;2024-01-11T04:35:05;97863.66;;;13.16;38.42
38880;BME280;25887;30.194;-97.880;2024-01-11T04:37:32;97871.31;;;13.19;38.45
38880;BME280;25887;30.194;-97.880;2024-01-11T04:39:58;97863.63;;;13.17;38.43
38880;BME280;25887;30.194;-97.880;2024-01-11T04:42:27;97873.09;;;13.17;38.39
38880;BME280;25887;30.194;-97.880;2024-01-11T04:44:53;97869.66;;;13.16;38.25
38880;BME280;25887;30.194;-97.880;2024-01-11T04:47:20;97867.97;;;13.14;38.60
38880;BME280;25887;30.194;-97.880;2024-01-11T04:49:46;97862.00;;;13.11;38.27
38880;BME280;25887;30.194;-97.880;2024-01-11T04:52:12;97869.81;;;13.08;38.20
38880;BME280;25887;30.194;-97.880;2024-01-11T04:54:39;97874.97;;;13.07;38.58
38880;BME280;25887;30.194;-97.880;2024-01-11T04:57:05;97876.72;;;13.05;38.38
38880;BME280;25887;30.194;-97.880;2024-01-11T04:59:31;97874.16;;;13.05;38.47
38880;BME280;25887;30.194;-97.880;2024-01-11T05:01:58;97868.19;;;13.03;38.74
38880;BME280;25887;30.194;-97.880;2024-01-11T05:04:24;97869.00;;;13.05;38.61
38880;BME280;25887;30.194;-97.880;2024-01-11T05:06:51;97869.88;;;13.04;38.61
38880;BME280;25887;30.194;-97.880;2024-01-11T05:09:17;97873.31;;;13.04;38.81
38880;BME280;25887;30.194;-97.880;2024-01-11T05:11:43;97864.66;;;13.07;38.49
38880;BME280;25887;30.194;-97.880;2024-01-11T05:14:10;97853.44;;;13.09;39.10
38880;BME280;25887;30.194;-97.880;2024-01-11T05:16:36;97854.22;;;13.13;38.82
38880;BME280;25887;30.194;-97.880;2024-01-11T05:19:02;97859.34;;;13.16;39.14
38880;BME280;25887;30.194;-97.880;2024-01-11T05:21:29;97858.44;;;13.19;39.30
38880;BME280;25887;30.194;-97.880;2024-01-11T05:23:55;97860.16;;;13.18;38.85
38880;BME280;25887;30.194;-97.880;2024-01-11T05:26:21;97861.88;;;13.18;39.28
38880;BME280;25887;30.194;-97.880;2024-01-11T05:28:48;97863.66;;;13.14;39.37
38880;BME280;25887;30.194;-97.880;2024-01-11T05:31:15;97867.19;;;13.10;38.97
38880;BME280;25887;30.194;-97.880;2024-01-11T05:33:42;97864.66;;;13.07;39.03
38880;BME280;25887;30.194;-97.880;2024-01-11T05:36:08;97874.25;;;13.00;39.15
38880;BME280;25887;30.194;-97.880;2024-01-11T05:38:35;97867.50;;;12.93;39.06
38880;BME280;25887;30.194;-97.880;2024-01-11T05:41:01;97873.56;;;12.89;39.17
38880;BME280;25887;30.194;-97.880;2024-01-11T05:43:27;97865.97;;;12.81;39.16
38880;BME280;25887;30.194;-97.880;2024-01-11T05:45:56;97864.34;;;12.76;39.02
38880;BME280;25887;30.194;-97.880;2024-01-11T05:48:22;97869.63;;;12.68;39.01
38880;BME280;25887;30.194;-97.880;2024-01-11T05:50:48;97868.91;;;12.62;39.30
38880;BME280;25887;30.194;-97.880;2024-01-11T05:53:14;97869.84;;;12.56;39.55
38880;BME280;25887;30.194;-97.880;2024-01-11T05:55:42;97871.63;;;12.51;39.41
38880;BME280;25887;30.194;-97.880;2024-01-11T05:58:11;97864.00;;;12.46;39.25
38880;BME280;25887;30.194;-97.880;2024-01-11T06:00:37;97866.63;;;12.42;39.39
38880;BME280;25887;30.194;-97.880;2024-01-11T06:03:04;97854.69;;;12.38;39.46
38880;BME280;25887;30.194;-97.880;2024-01-11T06:05:30;97857.25;;;12.38;39.54
38880;BME280;25887;30.194;-97.880;2024-01-11T06:07:56;97853.75;;;12.42;39.70
38880;BME280;25887;30.194;-97.880;2024-01-11T06:10:23;97848.53;;;12.45;40.08
38880;BME280;25887;30.194;-97.880;2024-01-11T06:12:49;97845.81;;;12.54;40.21
38880;BME280;25887;30.194;-97.880;2024-01-11T06:15:15;97856.81;;;12.64;40.40
38880;BME280;25887;30.194;-97.880;2024-01-11T06:17:41;97843.81;;;12.71;40.24
38880;BME280;25887;30.194;-97.880;2024-01-11T06:20:08;97843.69;;;12.79;40.45
38880;BME280;25887;30.194;-97.880;2024-01-11T06:22:36;97838.34;;;12.88;41.00
38880;BME280;25887;30.194;-97.880;2024-01-11T06:25:02;97838.19;;;12.97;41.35
38880;BME280;25887;30.194;-97.880;2024-01-11T06:27:31;97838.00;;;13.06;41.21
38880;BME280;25887;30.194;-97.880;2024-01-11T06:29:57;97835.28;;;13.14;41.35
38880;BME280;25887;30.194;-97.880;2024-01-11T06:32:24;97839.50;;;13.21;41.84
38880;BME280;25887;30.194;-97.880;2024-01-11T06:34:50;97831.63;;;13.27;42.08
38880;BME280;25887;30.194;-97.880;2024-01-11T06:37:17;97833.22;;;13.34;42.08
38880;BME280;25887;30.194;-97.880;2024-01-11T06:39:43;97828.78;;;13.41;42.32
38880;BME280;25887;30.194;-97.880;2024-01-11T06:42:09;97824.44;;;13.43;42.29
38880;BME280;25887;30.194;-97.880;2024-01-11T06:44:36;97820.03;;;13.48;42.61
38880;BME280;25887;30.194;-97.880;2024-01-11T06:47:02;97813.97;;;13.51;42.76
38880;BME280;25887;30.194;-97.880;2024-01-11T06:49:31;97822.47;;;13.56;42.73
38880;BME280;25887;30.194;-97.880;2024-01-11T06:52:00;97820.66;;;13.59;43.14
38880;BME280;25887;30.194;-97.880;2024-01-11T06:54:26;97805.97;;;13.61;43.10
38880;BME280;25887;30.194;-97.880;2024-01-11T06:56:52;97811.13;;;13.63;43.04
38880;BME280;25887;30.194;-97.880;2024-01-11T06:59:19;97817.06;;;13.66;43.26
38880;BME280;25887;30.194;-97.880;2024-01-11T07:01:45;97817.03;;;13.68;43.34
38880;BME280;25887;30.194;-97.880;2024-01-11T07:04:11;97818.72;;;13.69;43.62
38880;BME280;25887;30.194;-97.880;2024-01-11T07:06:37;97806.66;;;13.71;43.96
38880;BME280;25887;30.194;-97.880;2024-01-11T07:09:03;97809.13;;;13.76;43.94
38880;BME280;25887;30.194;-97.880;2024-01-11T07:11:31;97811.66;;;13.77;44.03
38880;BME280;25887;30.194;-97.880;2024-01-11T07:13:58;97803.03;;;13.80;44.09
38880;BME280;25887;30.194;-97.880;2024-01-11T07:16:24;97797.81;;;13.81;44.27
38880;BME280;25887;30.194;-97.880;2024-01-11T07:18:50;97802.06;;;13.84;44.36
38880;BME280;25887;30.194;-97.880;2024-01-11T07:21:23;97802.03;;;13.85;44.15
38880;BME280;25887;30.194;-97.880;2024-01-11T07:23:55;97796.00;;;13.86;44.78
38880;BME280;25887;30.194;-97.880;2024-01-11T07:26:25;97801.06;;;13.89;44.46
38880;BME280;25887;30.194;-97.880;2024-01-11T07:28:52;97798.50;;;13.89;44.44
38880;BME280;25887;30.194;-97.880;2024-01-11T07:31:20;97808.72;;;13.94;44.78
38880;BME280;25887;30.194;-97.880;2024-01-11T07:33:47;97800.94;;;13.96;45.12
38880;BME280;25887;30.194;-97.880;2024-01-11T07:36:13;97795.75;;;13.97;44.75
38880;BME280;25887;30.194;-97.880;2024-01-11T07:38:39;97798.22;;;14.00;45.02
38880;BME280;25887;30.194;-97.880;2024-01-11T07:41:06;97796.50;;;14.01;44.71
38880;BME280;25887;30.194;-97.880;2024-01-11T07:43:33;97789.59;;;14.03;44.93
38880;BME280;25887;30.194;-97.880;2024-01-11T07:46:04;97792.13;;;14.04;44.99
38880;BME280;25887;30.194;-97.880;2024-01-11T07:48:31;97799.00;;;14.05;45.43
38880;BME280;25887;30.194;-97.880;2024-01-11T07:50:58;97794.66;;;14.06;45.53
38880;BME280;25887;30.194;-97.880;2024-01-11T07:53:28;97800.63;;;14.08;45.28
38880;BME280;25887;30.194;-97.880;2024-01-11T07:55:54;97791.19;;;14.07;45.51
38880;BME280;25887;30.194;-97.880;2024-01-11T07:58:22;97794.56;;;14.10;45.70
38880;BME280;25887;30.194;-97.880;2024-01-11T08:00:49;97788.47;;;14.13;46.16
38880;BME280;25887;30.194;-97.880;2024-01-11T08:03:15;97793.66;;;14.13;45.86
38880;BME280;25887;30.194;-97.880;2024-01-11T08:05:49;97787.59;;;14.14;45.88
38880;BME280;25887;30.194;-97.880;2024-01-11T08:08:17;97781.53;;;14.15;46.25
38880;BME280;25887;30.194;-97.880;2024-01-11T08:10:43;97778.06;;;14.17;46.28
38880;BME280;25887;30.194;-97.880;2024-01-11T08:13:09;97771.16;;;14.18;46.34
38880;BME280;25887;30.194;-97.880;2024-01-11T08:15:35;97767.66;;;14.19;46.30
38880;BME280;25887;30.194;-97.880;2024-01-11T08:18:03;97768.47;;;14.21;46.38
38880;BME280;25887;30.194;-97.880;2024-01-11T08:20:30;97764.16;;;14.21;46.49
38880;BME280;25887;30.194;-97.880;2024-01-11T08:22:56;97759.00;;;14.21;46.25
38880;BME280;25887;30.194;-97.880;2024-01-11T08:25:25;97756.41;;;14.21;46.33
38880;BME280;25887;30.194;-97.880;2024-01-11T08:27:51;97746.97;;;14.20;46.46
38880;BME280;25887;30.194;-97.880;2024-01-11T08:30:18;97749.59;;;14.19;46.48
38880;BME280;25887;30.194;-97.880;2024-01-11T08:32:44;97752.22;;;14.17;46.51
38880;BME280;25887;30.194;-97.880;2024-01-11T08:35:14;97752.22;;;14.17;46.72
38880;BME280;25887;30.194;-97.880;2024-01-11T08:37:40;97746.22;;;14.15;46.72
38880;BME280;25887;30.194;-97.880;2024-01-11T08:40:07;97740.28;;;14.12;46.71
38880;BME280;25887;30.194;-97.880;2024-01-11T08:42:35;97739.44;;;14.11;46.37
38880;BME280;25887;30.194;-97.880;2024-01-11T08:45:01;97739.50;;;14.08;46.66
38880;BME280;25887;30.194;-97.880;2024-01-11T08:47:33;97737.00;;;14.05;46.65
38880;BME280;25887;30.194;-97.880;2024-01-11T08:50:00;97743.09;;;14.03;46.95
38880;BME280;25887;30.194;-97.880;2024-01-11T08:52:26;97738.88;;;13.99;46.67
38880;BME280;25887;30.194;-97.880;2024-01-11T08:54:53;97735.53;;;13.95;46.94
38880;BME280;25887;30.194;-97.880;2024-01-11T08:57:19;97731.31;;;13.91;47.17
38880;BME280;25887;30.194;-97.880;2024-01-11T08:59:45;97726.22;;;13.88;47.17
38880;BME280;25887;30.194;-97.880;2024-01-11T09:02:11;97734.06;;;13.83;47.22
38880;BME280;25887;30.194;-97.880;2024-01-11T09:04:38;97720.44;;;13.78;47.18
38880;BME280;25887;30.194;-97.880;2024-01-11T09:07:04;97722.19;;;13.76;47.26
38880;BME280;25887;30.194;-97.880;2024-01-11T09:09:30;97728.31;;;13.72;47.20
38880;BME280;25887;30.194;-97.880;2024-01-11T09:11:57;97728.38;;;13.71;47.34
38880;BME280;25887;30.194;-97.880;2024-01-11T09:14:23;97728.41;;;13.68;47.22
38880;BME280;25887;30.194;-97.880;2024-01-11T09:16:49;97734.50;;;13.65;47.23
38880;BME280;25887;30.194;-97.880;2024-01-11T09:19:15;97737.13;;;13.63;47.49
38880;BME280;25887;30.194;-97.880;2024-01-11T09:21:42;97730.28;;;13.61;47.70
38880;BME280;25887;30.194;-97.880;2024-01-11T09:24:08;97725.13;;;13.61;47.80
38880;BME280;25887;30.194;-97.880;2024-01-11T09:26:34;97724.28;;;13.60;47.78
38880;BME280;25887;30.194;-97.880;2024-01-11T09:29:02;97724.28;;;13.60;48.11
38880;BME280;25887;30.194;-97.880;2024-01-11T09:31:28;97725.13;;;13.61;48.46
38880;BME280;25887;30.194;-97.880;2024-01-11T09:33:55;97727.69;;;13.61;48.03
38880;BME280;25887;30.194;-97.880;2024-01-11T09:36:22;97738.03;;;13.61;48.05
38880;BME280;25887;30.194;-97.880;2024-01-11T09:38:49;97731.13;;;13.61;48.68
38880;BME280;25887;30.194;-97.880;2024-01-11T09:44:10;97737.09;;;13.65;48.83
38880;BME280;25887;30.194;-97.880;2024-01-11T09:46:48;97731.84;;;13.70;48.69
38880;BME280;25887;30.194;-97.880;2024-01-11T09:49:17;97731.84;;;13.68;48.55
38880;BME280;25887;30.194;-97.880;2024-01-11T10:02:19;97717.19;;;13.70;48.35
38880;BME280;25887;30.194;-97.880;2024-01-11T10:04:50;97717.28;;;13.65;48.84
38880;BME280;25887;30.194;-97.880;2024-01-11T10:07:21;97719.88;;;13.65;49.02
38880;BME280;25887;30.194;-97.880;2024-01-11T10:09:48;97715.56;;;13.66;48.69
38880;BME280;25887;30.194;-97.880;2024-01-11T10:12:20;97713.81;;;13.66;48.68
38880;BME280;25887;30.194;-97.880;2024-01-11T10:14:51;97704.44;;;13.64;48.75
38880;BME280;25887;30.194;-97.880;2024-01-11T10:17:20;97717.31;;;13.64;48.58
38880;BME280;25887;30.194;-97.880;2024-01-11T10:19:46;97714.78;;;13.61;48.57
38880;BME280;25887;30.194;-97.880;2024-01-11T10:22:13;97709.72;;;13.58;48.80
38880;BME280;25887;30.194;-97.880;2024-01-11T10:25:26;97700.19;;;13.60;48.51
38880;BME280;25887;30.194;-97.880;2024-01-11T10:27:53;97702.97;;;13.52;48.79
38880;BME280;25887;30.194;-97.880;2024-01-11T10:30:19;97701.31;;;13.50;49.04
38880;BME280;25887;30.194;-97.880;2024-01-11T10:32:48;97701.31;;;13.50;49.13
38880;BME280;25887;30.194;-97.880;2024-01-11T10:35:17;97698.72;;;13.50;49.29
38880;BME280;25887;30.194;-97.880;2024-01-11T10:37:44;97701.34;;;13.48;48.92
38880;BME280;25887;30.194;-97.880;2024-01-11T10:40:11;97696.22;;;13.47;48.77
38880;BME280;25887;30.194;-97.880;2024-01-11T10:42:45;97688.47;;;13.47;49.32
38880;BME280;25887;30.194;-97.880;2024-01-11T10:45:16;97685.75;;;13.53;48.92
38880;BME280;25887;30.194;-97.880;2024-01-11T10:47:55;97685.91;;;13.47;49.32
38880;BME280;25887;30.194;-97.880;2024-01-11T10:50:54;97678.97;;;13.49;49.32
38880;BME280;25887;30.194;-97.880;2024-01-11T10:56:44;97684.19;;;13.46;49.19
38880;BME280;25887;30.194;-97.880;2024-01-11T10:59:49;97692.81;;;13.45;49.55
38880;BME280;25887;30.194;-97.880;2024-01-11T12:43:24;97696.41;;;12.96;49.72
38880;BME280;25887;30.194;-97.880;2024-01-11T13:06:39;97725.16;;;12.77;50.08
38880;BME280;25887;30.194;-97.880;2024-01-11T14:07:52;97694.31;;;12.26;50.21
38880;BME280;25887;30.194;-97.880;2024-01-11T15:11:58;97730.16;;;15.33;50.33
38880;BME280;25887;30.194;-97.880;2024-01-11T15:14:25;97725.56;;;15.43;50.37
38880;BME280;25887;30.194;-97.880;2024-01-11T15:16:52;97729.38;;;15.59;50.29
38880;BME280;25887;30.194;-97.880;2024-01-11T15:19:28;97735.69;;;15.80;50.33
38880;BME280;25887;30.194;-97.880;2024-01-11T15:22:48;97728.97;;;16.27;49.55
38880;BME280;25887;30.194;-97.880;2024-01-11T15:25:51;97729.28;;;16.43;49.47
38880;BME280;25887;30.194;-97.880;2024-01-11T15:28:44;97738.00;;;16.40;49.65
38880;BME280;25887;30.194;-97.880;2024-01-11T15:31:33;97731.13;;;16.39;50.04
38880;BME280;25887;30.194;-97.880;2024-01-11T15:34:30;97735.38;;;16.42;49.71
38880;BME280;25887;30.194;-97.880;2024-01-11T15:36:57;97737.81;;;16.47;49.88
38880;BME280;25887;30.194;-97.880;2024-01-11T15:39:23;97735.00;;;16.53;49.59
38880;BME280;25887;30.194;-97.880;2024-01-11T15:41:50;97740.91;;;16.58;49.63
38880;BME280;25887;30.194;-97.880;2024-01-11T15:44:22;97744.09;;;16.64;49.45
38880;BME280;25887;30.194;-97.880;2024-01-11T15:47:29;97736.06;;;16.74;49.67
38880;BME280;25887;30.194;-97.880;2024-01-11T15:50:38;97734.03;;;16.82;49.37
38880;BME280;25887;30.194;-97.880;2024-01-11T15:53:21;97739.03;;;16.86;49.53
38880;BME280;25887;30.194;-97.880;2024-01-11T15:59:19;97734.16;;;17.02;49.24
38880;BME280;25887;30.194;-97.880;2024-01-11T17:07:24;97711.97;;;17.40;49.51
38880;BME280;25887;30.194;-97.880;2024-01-11T17:09:50;97716.03;;;17.47;49.59
38880;BME280;25887;30.194;-97.880;2024-01-11T17:12:19;97707.09;;;17.54;49.74
38880;BME280;25887;30.194;-97.880;2024-01-11T17:14:48;97699.78;;;17.64;49.67
38880;BME280;25887;30.194;-97.880;2024-01-11T17:17:15;97694.38;;;17.70;49.76
38880;BME280;25887;30.194;-97.880;2024-01-11T17:19:41;97694.25;;;17.73;49.95
38880;BME280;25887;30.194;-97.880;2024-01-11T17:22:07;97688.88;;;17.78;49.84
38880;BME280;25887;30.194;-97.880;2024-01-11T17:24:34;97688.56;;;17.86;49.97
38880;BME280;25887;30.194;-97.880;2024-01-11T17:27:00;97680.72;;;17.87;50.22
38880;BME280;25887;30.194;-97.880;2024-01-11T17:29:36;97687.53;;;17.90;50.38
38880;BME280;25887;30.194;-97.880;2024-01-11T17:32:03;97678.88;;;17.89;50.40
38880;BME280;25887;30.194;-97.880;2024-01-11T17:34:30;97674.28;;;17.96;50.24
38880;BME280;25887;30.194;-97.880;2024-01-11T17:37:44;97662.63;;;18.06;50.63
38880;BME280;25887;30.194;-97.880;2024-01-11T17:40:11;97649.50;;;18.09;50.53
38880;BME280;25887;30.194;-97.880;2024-01-11T17:42:37;97645.72;;;18.16;50.80
38880;BME280;25887;30.194;-97.880;2024-01-11T17:45:04;97641.06;;;18.24;50.46
38880;BME280;25887;30.194;-97.880;2024-01-11T17:47:31;97632.06;;;18.31;50.75
38880;BME280;25887;30.194;-97.880;2024-01-11T17:50:20;97630.97;;;18.37;51.12
38880;BME280;25887;30.194;-97.880;2024-01-11T17:53:16;97618.53;;;18.44;50.92
38880;BME280;25887;30.194;-97.880;2024-01-11T17:56:17;97599.88;;;18.54;50.90
38880;BME280;25887;30.194;-97.880;2024-01-11T17:59:26;97592.47;;;18.64;50.57
38880;BME280;25887;30.194;-97.880;2024-01-11T18:02:01;97583.59;;;18.70;50.93
38880;BME280;25887;30.194;-97.880;2024-01-11T18:15:12;97546.47;;;18.85;50.83
38880;BME280;25887;30.194;-97.880;2024-01-11T18:17:55;97535.97;;;18.86;50.99
38880;BME280;25887;30.194;-97.880;2024-01-11T22:47:44;97017.75;;;23.64;51.33
38880;BME280;25887;30.194;-97.880;2024-01-11T22:53:44;97021.13;;;23.66;51.47
38880;BME280;25887;30.194;-97.880;2024-01-11T22:56:10;97026.38;;;23.66;51.37
38880;BME280;25887;30.194;-97.880;2024-01-11T22:58:36;97022.66;;;23.69;51.52